Latest Weather Observations for Hindmarsh Island

IDS60801

Issued at 6:35 pm CDT Monday 24 November 2014 (issued every 30 minutes, with the page automatically refreshed every 10 minutes)

About weather observations | Map of weather stations | Latest weather observations for SA | Other Formats
Station Details ID: 023894 Name: HINDMARSH ISLAND AWS Lat: -35.52 Lon: 138.82 Height: 11.0 m
Data from the previous 72 hours. | See also: Recent months at Hindmarsh Island
Date/Time
CDT
Temp
°C
App
Temp
°C
Dew
Point
Rel
Hum
%
Delta-T
°C
Wind Press
QNH
hPa
Press
MSL
hPa
Rain
since 9 am
mm
Dir
 
Spd
km/h
Gust
km/h
Spd
kts
Gust
kts
24/06:30pm 16.8 7.0 7.2 53 4.8 SW 48 59 26 32 1015.8 - 0.2
24/06:00pm 17.8 9.1 8.4 54 4.8 SW 44 59 24 32 1015.6 1015.5 0.2
24/05:30pm 17.6 8.7 9.2 58 4.4 SW 46 57 25 31 1015.2 - 0.2
24/05:00pm 18.3 10.4 9.4 56 4.7 SSW 41 50 22 27 1015.1 - 0.2
24/04:30pm 18.5 10.4 8.5 52 5.2 SSW 41 50 22 27 1014.8 - 0.2
24/04:00pm 18.7 10.0 8.4 51 5.3 SW 44 54 24 29 1014.6 - 0.2
24/03:30pm 18.8 10.5 7.9 49 5.6 SW 41 50 22 27 1014.5 - 0.2
24/03:00pm 18.9 10.5 9.7 55 4.9 SSW 44 54 24 29 1014.3 1014.3 0.2
24/02:30pm 18.9 10.3 8.8 52 5.3 SW 44 57 24 31 1014.2 - 0.2
24/02:00pm 19.2 11.7 11.0 59 4.5 SSW 41 50 22 27 1014.1 - 0.2
24/01:30pm 18.3 10.6 11.4 64 3.8 SW 43 52 23 28 1013.9 - 0.2
24/01:00pm 18.6 11.0 11.7 64 3.8 SW 43 54 23 29 1013.7 - 0.2
24/12:30pm 19.6 12.1 10.9 57 4.7 SW 41 52 22 28 1013.5 - 0.2
24/12:00pm 18.4 10.5 9.5 56 4.7 SW 41 48 22 26 1013.3 1013.2 0.2
24/11:30am 16.8 10.1 13.3 80 2.0 SW 41 50 22 27 1013.3 - 0.2
24/11:05am 18.1 13.9 13.4 74 2.7 SW 28 48 15 26 1012.9 - 0.2
24/11:00am 19.2 15.9 12.9 67 3.6 SW 22 28 12 15 1012.8 - 0.2
24/10:30am 19.8 16.9 12.3 62 4.2 SW 19 24 10 13 1012.9 - 0.0
24/10:00am 20.0 17.2 13.2 65 3.9 SW 20 28 11 15 1012.7 - 0.0
24/09:30am 18.9 15.5 12.4 66 3.6 SW 22 26 12 14 1012.3 - 0.0
24/09:00am 18.2 15.1 13.5 74 2.7 SW 22 30 12 16 1012.0 1011.9 7.0
24/08:30am 17.5 13.9 13.2 76 2.4 SSW 24 28 13 15 1011.3 - 7.0
24/08:00am 16.9 12.3 12.4 75 2.5 SSW 28 32 15 17 1011.1 - 7.0
24/07:30am 16.7 11.5 12.8 78 2.2 SSW 32 39 17 21 1010.5 - 7.0
24/07:00am 16.2 12.1 12.6 79 2.0 S 26 30 14 16 1010.1 - 7.0
24/06:30am 15.9 11.0 12.5 80 1.9 S 30 39 16 21 1009.9 - 7.0
24/06:00am 16.4 10.1 12.4 77 2.2 S 37 46 20 25 1009.5 1009.1 5.6
24/05:30am 16.1 10.0 11.7 75 2.4 S 35 41 19 22 1008.8 - 5.6
24/05:00am 16.3 11.4 13.8 85 1.4 SSW 32 35 17 19 1008.4 - 5.6
24/04:30am 16.2 10.8 12.9 81 1.8 S 33 39 18 21 1007.4 - 5.0
24/04:00am 16.6 11.8 13.9 84 1.5 S 32 39 17 21 1008.8 - 2.0
24/03:52am 17.0 12.1 13.7 81 1.9 S 32 44 17 24 1007.9 - 0.4
24/03:44am 17.6 11.3 13.5 77 2.3 SW 39 44 21 24 1009.2 - 0.0
24/03:30am 17.2 12.2 13.3 78 2.2 S 32 39 17 21 1007.9 - 0.0
24/03:00am 17.9 14.4 13.4 75 2.5 SSW 24 32 13 17 1008.6 1008.5 0.0
24/02:30am 17.9 15.5 12.8 72 2.9 SSW 17 20 9 11 1008.1 - 0.0
24/02:00am 17.7 17.1 12.2 70 3.0 S 7 9 4 5 1008.3 - 0.0
24/01:30am 17.6 16.5 11.8 69 3.2 S 9 11 5 6 1008.5 - 0.0
24/01:00am 17.2 15.8 11.0 67 3.3 E 9 11 5 6 1009.0 - 0.0
24/12:30am 17.9 15.9 11.5 66 3.5 SSE 13 17 7 9 1009.6 - 0.0
24/12:00am 18.0 15.7 11.6 66 3.5 SSE 15 17 8 9 1009.6 1009.6 0.0
 
Date/Time
CDT
Temp
°C
App
Temp
°C
Dew
Point
Rel
Hum
%
Delta-T
°C
Wind Press
QNH
hPa
Press
MSL
hPa
Rain
since 9 am
mm
Dir
 
Spd
km/h
Gust
km/h
Spd
kts
Gust
kts
23/11:30pm 18.0 16.6 12.2 69 3.2 SSE 11 17 6 9 1009.8 - 0.0
23/11:00pm 18.3 16.7 12.7 70 3.1 SSE 13 20 7 11 1010.6 - 0.0
23/10:30pm 18.2 15.9 13.1 72 2.9 SSE 17 20 9 11 1010.6 - 0.0
23/10:00pm 18.5 16.6 13.1 71 3.0 SSE 15 17 8 9 1010.7 - 0.0
23/09:30pm 18.7 16.1 13.3 71 3.1 SE 19 22 10 12 1010.5 - 0.0
23/09:00pm 19.0 16.1 13.0 68 3.4 SE 20 26 11 14 1010.3 1010.2 0.0
23/08:30pm 19.2 16.5 13.6 70 3.2 SSE 20 26 11 14 1009.8 - 0.0
23/08:00pm 19.7 17.1 13.2 66 3.7 SE 19 22 10 12 1009.9 - 0.0
23/07:30pm 19.9 16.6 12.7 63 4.1 SSE 22 28 12 15 1009.3 - 0.0
23/07:00pm 19.7 16.8 13.9 69 3.3 SE 22 26 12 14 1009.5 - 0.0
23/06:30pm 20.9 18.4 13.4 62 4.3 SE 19 20 10 11 1009.8 - 0.0
23/06:00pm 20.4 18.0 12.6 61 4.4 S 17 20 9 11 1010.2 1010.1 0.0
23/05:30pm 20.3 18.6 12.5 61 4.4 S 13 17 7 9 1010.4 - 0.0
23/05:00pm 20.2 19.0 12.7 62 4.2 SSE 11 13 6 7 1010.6 - 0.0
23/04:30pm 21.2 18.8 12.6 58 4.9 S 17 20 9 11 1010.7 - 0.0
23/04:00pm 20.8 19.0 12.2 58 4.8 S 13 17 7 9 1011.6 - 0.0
23/03:30pm 21.2 18.7 11.2 53 5.5 S 15 20 8 11 1011.9 - 0.0
23/03:00pm 21.3 18.2 12.2 56 5.1 S 20 24 11 13 1012.0 1011.7 0.0
23/02:30pm 21.4 17.2 12.5 57 5.0 S 26 32 14 17 1011.5 - 0.0
23/02:00pm 21.6 17.8 13.5 60 4.7 S 26 32 14 17 1011.7 - 0.0
23/01:30pm 21.4 18.0 13.8 62 4.4 S 24 28 13 15 1012.2 - 0.0
23/01:00pm 21.0 18.4 13.2 61 4.5 S 19 22 10 12 1012.5 - 0.0
23/12:30pm 21.5 18.4 13.4 60 4.7 S 22 26 12 14 1012.5 - 0.0
23/12:00pm 21.0 18.5 13.4 62 4.4 SSE 19 22 10 12 1012.6 1012.5 0.0
23/11:30am 20.9 18.4 13.6 63 4.2 SSE 19 20 10 11 1012.6 - 0.0
23/11:00am 20.3 17.6 13.5 65 3.9 S 20 24 11 13 1012.4 - 0.0
23/10:30am 20.0 17.7 13.0 64 4.0 S 17 20 9 11 1012.1 - 0.0
23/10:00am 19.4 17.5 12.9 66 3.7 SSE 15 19 8 10 1012.3 - 0.0
23/09:30am 19.0 18.1 12.7 67 3.5 S 9 13 5 7 1012.7 - 0.0
23/09:00am 18.1 17.5 12.3 69 3.2 S 7 11 4 6 1012.7 1012.6 0.4
23/08:30am 18.0 17.6 12.9 72 2.9 SSE 7 11 4 6 1012.7 - 0.4
23/08:00am 16.6 16.3 12.6 77 2.2 NNW 6 9 3 5 1012.7 - 0.4
23/07:30am 15.3 14.9 12.4 83 1.6 NNW 6 9 3 5 1012.7 - 0.4
23/07:00am 13.9 13.1 11.8 87 1.1 NNW 7 9 4 5 1012.6 - 0.4
23/06:30am 12.8 11.4 10.9 88 1.0 NNW 9 11 5 6 1012.6 - 0.4
23/06:00am 12.7 11.3 10.8 88 1.0 N 9 11 5 6 1012.3 1012.2 0.4
23/05:30am 12.9 11.5 10.8 87 1.1 NNW 9 11 5 6 1012.0 - 0.4
23/05:00am 13.4 12.1 11.1 86 1.2 NW 9 11 5 6 1011.9 - 0.4
23/04:30am 13.4 12.1 11.1 86 1.2 NW 9 11 5 6 1011.7 - 0.4
23/04:00am 13.6 12.3 11.3 86 1.2 NW 9 9 5 5 1011.8 - 0.4
23/03:30am 13.7 12.4 11.2 85 1.3 NW 9 9 5 5 1011.6 - 0.4
23/03:00am 14.2 12.9 11.4 83 1.5 NNW 9 11 5 6 1011.7 1011.6 0.4
23/02:30am 15.4 14.0 12.2 81 1.7 SSW 11 13 6 7 1011.7 - 0.4
23/02:00am 15.5 14.1 12.3 81 1.7 SSW 11 13 6 7 1011.8 - 0.4
23/01:30am 15.6 14.2 12.2 80 1.9 SSW 11 15 6 8 1012.1 - 0.4
23/01:00am 15.9 13.8 12.3 79 2.0 SW 15 19 8 10 1012.4 - 0.4
23/12:30am 16.1 14.0 12.5 79 2.0 SSW 15 19 8 10 1012.4 - 0.4
23/12:00am 16.3 13.5 12.5 78 2.1 SSW 19 20 10 11 1012.5 1012.4 0.4
 
Date/Time
CDT
Temp
°C
App
Temp
°C
Dew
Point
Rel
Hum
%
Delta-T
°C
Wind Press
QNH
hPa
Press
MSL
hPa
Rain
since 9 am
mm
Dir
 
Spd
km/h
Gust
km/h
Spd
kts
Gust
kts
22/11:30pm 16.5 13.2 12.7 78 2.1 SSW 22 26 12 14 1012.4 - 0.4
22/11:00pm 16.6 13.6 12.6 77 2.2 SSW 20 24 11 13 1012.5 - 0.4
22/10:30pm 16.8 14.0 13.1 79 2.1 SSW 20 24 11 13 1012.6 - 0.4
22/10:00pm 16.7 13.0 12.8 78 2.2 SSW 24 28 13 15 1012.2 - 0.4
22/09:30pm 16.7 14.0 13.4 81 1.9 SSW 20 26 11 14 1011.8 - 0.4
22/09:00pm 16.8 14.2 13.7 82 1.8 SW 20 24 11 13 1011.3 1011.2 0.4
22/08:30pm 16.8 14.1 13.5 81 1.9 SW 20 24 11 13 1010.9 - 0.4
22/08:00pm 17.1 13.7 13.8 81 1.9 SW 24 30 13 16 1010.3 - 0.4
22/07:30pm 17.8 13.4 14.1 79 2.1 SW 30 37 16 20 1009.8 - 0.4
22/07:00pm 18.3 13.6 14.4 78 2.2 SSW 32 37 17 20 1009.3 - 0.4
22/06:30pm 18.1 12.3 14.0 77 2.3 SW 37 44 20 24 1009.0 - 0.4
22/06:00pm 19.9 15.1 14.5 71 3.1 SSW 33 41 18 22 1008.6 1008.4 0.4
22/05:30pm 20.0 15.3 14.4 70 3.3 SW 32 41 17 22 1008.0 - 0.4
22/05:00pm 20.1 15.3 14.5 70 3.3 SSW 33 41 18 22 1007.5 - 0.4
22/04:30pm 21.6 17.9 15.0 66 3.9 SSW 28 35 15 19 1007.0 - 0.4
22/04:00pm 23.6 20.6 14.9 58 5.2 SW 24 32 13 17 1006.5 - 0.4
22/03:30pm 26.7 23.4 14.1 46 7.5 WNW 24 39 13 21 1006.1 - 0.4
22/03:00pm 23.9 21.1 16.4 63 4.6 W 26 37 14 20 1006.7 1006.7 0.4
22/02:31pm 27.8 22.9 11.4 36 9.4 WNW 28 46 15 25 1006.2 - 0.2
22/02:30pm 28.5 23.8 12.0 36 9.6 WNW 28 41 15 22 1006.2 - 0.2
22/02:00pm 26.4 22.5 12.1 41 8.2 NW 24 33 13 18 1006.4 - 0.2
22/01:30pm 28.0 23.4 11.1 35 9.6 NW 26 35 14 19 1006.0 - 0.2
22/01:00pm 29.5 27.5 11.5 33 10.4 WSW 13 37 7 20 1005.7 - 0.2
22/12:30pm 27.1 25.8 13.8 44 7.9 N 13 19 7 10 1006.2 - 0.2
22/12:00pm 26.4 23.5 13.9 46 7.4 N 22 30 12 16 1006.5 1006.5 0.0
22/11:31am 25.6 21.7 14.4 50 6.7 N 28 48 15 26 1006.6 - 0.0
22/11:30am 25.6 21.5 15.0 52 6.4 N 30 46 16 25 1006.7 - 0.0
22/11:23am 25.1 21.2 14.3 51 6.4 N 28 46 15 25 1006.3 - 0.0
22/11:00am 24.2 21.0 15.4 58 5.3 N 26 37 14 20 1006.7 - 0.0
22/10:30am 24.4 20.9 14.5 54 5.9 N 26 39 14 21 1006.6 - 0.0
22/10:00am 22.4 18.3 13.7 58 5.0 N 28 41 15 22 1007.1 - 0.0
22/09:30am 23.4 19.1 13.3 53 5.8 N 28 35 15 19 1006.9 - 0.0
22/09:00am 21.3 18.8 12.4 57 5.0 N 17 28 9 15 1007.4 1007.3 0.0
22/08:30am 20.3 19.6 13.3 64 4.0 WNW 9 15 5 8 1007.2 - 0.0
22/08:00am 18.9 19.7 13.7 72 3.0 ESE 2 9 1 5 1007.8 - 0.0
22/07:30am 19.3 17.2 13.5 69 3.3 W 17 28 9 15 1008.3 - 0.0
22/07:18am 20.0 18.3 12.3 61 4.3 S 13 17 7 9 1008.6 - 0.0
22/07:00am 20.1 16.6 12.3 61 4.4 SE 22 24 12 13 1006.5 - 0.0
22/06:30am 19.3 16.8 12.3 64 3.9 S 17 20 9 11 1006.2 - 0.0
22/06:00am 19.9 18.4 8.3 47 6.0 NW 6 9 3 5 1006.3 1006.2 0.0
22/05:30am 19.6 14.8 7.4 45 6.2 NE 22 28 12 15 1005.1 - 0.0
22/05:00am 19.2 13.6 7.3 46 6.0 NE 26 30 14 16 1005.2 - 0.0
22/04:30am 19.0 14.6 8.9 52 5.3 NNE 22 28 12 15 1005.4 - 0.0
22/04:00am 18.8 14.5 9.3 54 5.0 NNE 22 28 12 15 1005.1 - 0.0
22/03:30am 18.4 14.4 9.2 55 4.8 NNE 20 28 11 15 1005.5 - 0.0
22/03:00am 18.2 13.4 9.0 55 4.8 NNE 24 28 13 15 1005.6 1005.4 0.0
22/02:30am 18.2 13.0 8.7 54 4.9 N 26 35 14 19 1005.7 - 0.0
22/02:00am 18.1 13.8 9.2 56 4.7 NNE 22 30 12 16 1006.3 - 0.0
22/01:30am 17.9 14.2 10.0 60 4.2 NNE 20 26 11 14 1006.9 - 0.0
22/01:00am 17.8 13.8 10.4 62 4.0 NNE 22 30 12 16 1007.5 - 0.0
22/12:30am 18.2 14.2 10.6 61 4.1 N 22 28 12 15 1008.2 - 0.0
22/12:00am 17.5 14.7 11.5 68 3.3 NNE 17 19 9 10 1008.8 1008.8 0.0
 
Date/Time
CDT
Temp
°C
App
Temp
°C
Dew
Point
Rel
Hum
%
Delta-T
°C
Wind Press
QNH
hPa
Press
MSL
hPa
Rain
since 9 am
mm
Dir
 
Spd
km/h
Gust
km/h
Spd
kts
Gust
kts
21/11:30pm 17.3 14.5 11.3 68 3.2 NNE 17 20 9 11 1009.2 - 0.0
21/11:00pm 17.5 15.1 11.3 67 3.4 N 15 17 8 9 1009.8 - 0.0
21/10:30pm 17.6 15.6 11.6 68 3.3 N 13 15 7 8 1010.3 - 0.0
21/10:00pm 17.6 16.3 11.2 66 3.5 N 9 11 5 6 1010.7 - 0.0
21/09:30pm 17.8 16.0 10.9 64 3.7 N 11 13 6 7 1010.7 - 0.0
21/09:00pm 17.2 15.2 10.3 64 3.7 NNE 11 13 6 7 1010.6 1010.6 0.0
21/08:30pm 16.8 15.5 11.1 69 3.1 ENE 9 11 5 6 1010.8 - 0.0
21/08:00pm 17.4 15.3 11.2 67 3.4 ESE 13 17 7 9 1010.7 - 0.0
21/07:30pm 18.3 16.3 11.6 65 3.7 SSE 13 15 7 8 1010.7 - 0.0
21/07:00pm 18.5 16.9 11.6 64 3.8 SE 11 13 6 7 1010.7 - 0.0

Other Formats:

Comma delimited format used in spreadsheet applications
http://www.bom.gov.au/fwo/IDS60801/IDS60801.94677.axf

JavaScript Object Notation format (JSON) in row-major order
http://www.bom.gov.au/fwo/IDS60801/IDS60801.94677.json